Pronóstico
Mapa Interactivo
Aviación
Climatología
Hidrometeorología
Agrometeorología
Estaciones Automáticas
Transparencia
OMM WMO
Portada
Institución
Noticias
Imágenes
Tsunami
Historial
Boletines y Alertas
Contactos
Buscar Contenidos
Informe del Tiempo

 

SADR31 MDSD 232000Z
METAR
METAR MDPP 232000Z 09010KT 9999 FEW020 30/25 Q1013=
METAR MDST 232000Z 12010KT 9999 SCT025 31/21 Q1012=
METAR MDPC 232000Z 06008KT 9999 FEW023 28/24 Q1013 NOSIG=
METAR MDBH 232000Z 14012KT 9999 FEW023 31/23 Q1013=
METAR MDJB 23200Z 09008KT 7000 RA FEW016CB BKN018 29/25 Q1011
CB/NE/E/SE=
METAR MDSD 232000Z 14007KT 8000 VCSH FEW018CB FEW020 31/24 Q1012
CB/NE/NW/N=
METAR MDLR 232000Z 00000KT 9999 SCT020 31/22 Q1013=
METAR MDCY 232000Z 01010KT 9999 SCT019 29/25 Q1011=
METAR MDAB 232000Z 04006KT 9999 FEW020 31/26 Q1013=